Time;durP1;ratioP1;P1;durP2;ratioP2;P2;SDS_P1;SDS_P2;PMS_P1;PMS_P2;Temp;Humidity;BMP_temperature;BMP_pressure;BME280_temperature;BME280_humidity;BME280_pressure;Samples;Min_cycle;Max_cycle;Signal;HPM_P1;HPM_P2
2022/03/08 00:01:28;;;;;;;;;15.33;12.33;;;;;21.57;43.89;101688.35;112825;1244;19646;-85
2022/03/08 00:03:54;;;;;;;;;15.33;13.67;;;;;21.57;43.70;101690.12;112895;1245;19822;-86
2022/03/08 00:06:20;;;;;;;;;13.00;12.50;;;;;21.57;43.65;101695.55;112640;1244;19965;-86
2022/03/08 00:08:46;;;;;;;;;14.00;13.00;;;;;21.57;43.90;101690.91;112687;1245;19205;-86
2022/03/08 00:11:11;;;;;;;;;14.00;13.50;;;;;21.58;43.55;101691.88;112612;1245;22490;-85
2022/03/08 00:13:37;;;;;;;;;14.00;14.00;;;;;21.57;43.78;101696.09;112611;1244;20172;-85
2022/03/08 00:16:03;;;;;;;;;16.00;14.00;;;;;21.57;43.60;101694.52;112669;1245;19055;-85
2022/03/08 00:18:29;;;;;;;;;16.00;14.00;;;;;21.56;43.69;101698.81;112700;1244;19977;-86
2022/03/08 00:20:56;;;;;;;;;12.00;10.67;;;;;21.56;43.81;101709.35;112699;1245;21630;-85
2022/03/08 00:23:22;;;;;;;;;15.00;13.00;;;;;21.57;43.57;101713.44;112660;1245;20100;-85
2022/03/08 00:25:49;;;;;;;;;13.00;12.50;;;;;21.56;43.70;101712.05;112605;1245;23508;-84
2022/03/08 00:28:15;;;;;;;;;16.67;15.33;;;;;21.55;43.64;101714.33;112657;1245;21865;-87
2022/03/08 00:30:41;;;;;;;;;16.00;13.00;;;;;21.55;43.72;101713.82;112602;1245;19042;-85
2022/03/08 00:33:07;;;;;;;;;14.00;14.00;;;;;21.55;43.69;101717.84;112616;1245;22707;-85
2022/03/08 00:35:33;;;;;;;;;14.50;12.00;;;;;21.54;43.77;101708.63;112597;1245;20036;-87
2022/03/08 00:37:59;;;;;;;;;16.00;13.00;;;;;21.55;43.49;101707.48;112641;1245;24210;-88
2022/03/08 00:40:25;;;;;;;;;13.00;12.00;;;;;21.54;43.59;101703.15;112667;1245;19417;-86
2022/03/08 00:42:51;;;;;;;;;16.00;13.50;;;;;21.55;43.70;101702.73;112657;1245;23651;-86
2022/03/08 00:45:17;;;;;;;;;17.00;13.00;;;;;21.55;43.71;101699.09;112607;1245;20973;-86
2022/03/08 00:47:43;;;;;;;;;17.00;13.50;;;;;21.55;43.59;101700.55;112697;1245;19289;-86
2022/03/08 00:50:09;;;;;;;;;13.00;12.00;;;;;21.56;43.68;101699.70;112637;1244;22081;-86
2022/03/08 00:52:35;;;;;;;;;17.00;16.00;;;;;21.54;43.49;101701.16;112659;1244;19096;-85
2022/03/08 00:55:01;;;;;;;;;16.00;14.00;;;;;21.53;43.54;101698.23;112690;1245;19449;-86
2022/03/08 00:57:27;;;;;;;;;13.00;13.00;;;;;21.54;43.45;101690.52;112669;1245;23356;-85
2022/03/08 00:59:52;;;;;;;;;15.00;12.00;;;;;21.54;43.45;101687.59;113016;1245;20685;-86
2022/03/08 01:02:19;;;;;;;;;17.00;13.50;;;;;21.53;43.48;101683.81;112760;1245;19591;-85
2022/03/08 01:04:45;;;;;;;;;15.33;11.33;;;;;21.55;43.52;101680.02;112666;1245;20177;-85
2022/03/08 01:07:10;;;;;;;;;12.50;9.50;;;;;21.54;43.39;101679.04;112691;1245;18922;-88
2022/03/08 01:09:37;;;;;;;;;12.00;12.00;;;;;21.55;43.54;101679.86;111829;1245;1066767;-85
2022/03/08 01:12:03;;;;;;;;;13.33;13.00;;;;;21.55;43.53;101675.59;112707;1245;21406;-85
2022/03/08 01:14:29;;;;;;;;;15.33;13.00;;;;;21.54;43.50;101679.67;112653;1244;19487;-85
2022/03/08 01:16:55;;;;;;;;;13.50;12.00;;;;;21.55;43.42;101680.57;112654;1244;19759;-86
2022/03/08 01:19:21;;;;;;;;;16.00;13.00;;;;;21.53;43.40;101682.71;112655;1245;21482;-84
2022/03/08 01:21:47;;;;;;;;;13.00;12.50;;;;;21.55;43.47;101686.77;112671;1244;21709;-85
2022/03/08 01:24:13;;;;;;;;;12.33;10.00;;;;;21.54;43.43;101685.92;113229;1244;19478;-86
2022/03/08 01:26:39;;;;;;;;;13.00;12.67;;;;;21.54;43.52;101683.40;112737;1245;22980;-87
2022/03/08 01:29:05;;;;;;;;;13.00;12.33;;;;;21.53;43.58;101684.04;112720;1245;19224;-86
2022/03/08 01:31:31;;;;;;;;;14.00;12.50;;;;;21.52;43.52;101687.00;112760;1245;20677;-87
2022/03/08 01:33:57;;;;;;;;;12.00;12.00;;;;;21.53;43.30;101688.38;112736;1244;19960;-86
2022/03/08 01:36:23;;;;;;;;;14.00;13.00;;;;;21.52;43.49;101685.62;112750;1245;19118;-85
2022/03/08 01:38:50;;;;;;;;;14.67;12.33;;;;;21.51;43.45;101687.36;112729;1244;22534;-86
2022/03/08 01:41:18;;;;;;;;;12.67;12.67;;;;;21.52;43.23;101683.98;112695;1245;23174;-88
2022/03/08 01:43:45;;;;;;;;;16.00;13.00;;;;;21.51;43.26;101681.52;112665;1244;19118;-87
2022/03/08 01:46:11;;;;;;;;;10.00;9.00;;;;;21.50;43.40;101681.75;112736;1244;22884;-87
2022/03/08 01:48:38;;;;;;;;;19.33;15.33;;;;;21.51;43.42;101676.82;112706;1245;20426;-87
2022/03/08 01:51:04;;;;;;;;;12.50;10.00;;;;;21.49;43.31;101675.50;112826;1244;22028;-88
2022/03/08 01:53:30;;;;;;;;;10.00;9.00;;;;;21.50;43.34;101673.64;112755;1244;20972;-87
2022/03/08 01:55:56;;;;;;;;;12.50;12.00;;;;;21.50;43.47;101669.95;112703;1245;21459;-86
2022/03/08 01:58:22;;;;;;;;;12.67;12.00;;;;;21.50;43.14;101666.89;112743;1244;20998;-87
2022/03/08 02:00:48;;;;;;;;;13.00;12.50;;;;;21.50;43.36;101669.06;112725;1245;23709;-87
2022/03/08 02:03:15;;;;;;;;;14.00;13.33;;;;;21.50;43.34;101669.92;112754;1244;22602;-86
2022/03/08 02:05:41;;;;;;;;;9.50;9.50;;;;;21.52;43.15;101674.85;112762;1245;19021;-87
2022/03/08 02:08:07;;;;;;;;;12.00;9.33;;;;;21.52;43.15;101668.16;112637;1245;19414;-86
2022/03/08 02:10:33;;;;;;;;;10.00;10.00;;;;;21.51;43.32;101665.27;112690;1245;22064;-87
2022/03/08 02:12:59;;;;;;;;;13.67;12.00;;;;;21.51;43.09;101662.39;112467;1245;19221;-85
2022/03/08 02:15:25;;;;;;;;;9.50;9.00;;;;;21.52;43.28;101670.89;112744;1245;19208;-85
2022/03/08 02:17:51;;;;;;;;;14.00;12.00;;;;;21.53;43.12;101673.64;112641;1244;21489;-85
2022/03/08 02:20:17;;;;;;;;;12.67;11.33;;;;;21.52;43.30;101665.95;112633;1245;19051;-85
2022/03/08 02:22:43;;;;;;;;;11.00;9.00;;;;;21.53;43.17;101680.56;112631;1245;19691;-85
2022/03/08 02:25:09;;;;;;;;;14.00;12.00;;;;;21.52;43.01;101682.81;112636;1245;20292;-85
2022/03/08 02:27:35;;;;;;;;;11.00;10.00;;;;;21.52;43.18;101686.08;112675;1245;22180;-86
2022/03/08 02:30:01;;;;;;;;;13.00;10.00;;;;;21.52;43.14;101681.41;112638;1244;19405;-85
2022/03/08 02:32:27;;;;;;;;;12.00;12.00;;;;;21.52;43.23;101679.80;112604;1245;19920;-85
2022/03/08 02:34:53;;;;;;;;;12.00;10.00;;;;;21.52;42.99;101687.63;112607;1245;19120;-85
2022/03/08 02:37:20;;;;;;;;;13.00;12.00;;;;;21.51;43.12;101693.46;112627;1245;19369;-85
2022/03/08 02:39:46;;;;;;;;;10.00;9.00;;;;;21.50;42.97;101691.58;112667;1244;20448;-85
2022/03/08 02:42:12;;;;;;;;;9.50;9.00;;;;;21.49;43.01;101694.84;112590;1245;19169;-85
2022/03/08 02:44:38;;;;;;;;;12.00;11.00;;;;;21.49;42.99;101687.76;112638;1245;19185;-85
2022/03/08 02:47:04;;;;;;;;;12.00;11.00;;;;;21.49;42.96;101686.42;112650;1245;20106;-84
2022/03/08 02:49:30;;;;;;;;;12.50;12.00;;;;;21.48;42.90;101684.17;112667;1245;19345;-85
2022/03/08 02:51:56;;;;;;;;;16.50;12.00;;;;;21.48;43.00;101684.04;112668;1244;19525;-85
2022/03/08 02:54:22;;;;;;;;;13.67;10.67;;;;;21.48;42.85;101683.14;112593;1245;20482;-86
2022/03/08 02:56:48;;;;;;;;;9.00;9.00;;;;;21.48;43.07;101680.77;112613;1245;18994;-85
2022/03/08 02:59:14;;;;;;;;;9.00;9.00;;;;;21.47;43.00;101679.98;112624;1244;21891;-86
2022/03/08 03:01:40;;;;;;;;;13.00;10.00;;;;;21.46;42.88;101686.17;112661;1245;21491;-84
2022/03/08 03:04:06;;;;;;;;;12.50;11.00;;;;;21.46;43.07;101687.32;112674;1245;23292;-85
2022/03/08 03:06:35;;;;;;;;;10.00;10.00;;;;;21.46;42.88;101691.16;112632;1244;19415;-85
2022/03/08 03:09:01;;;;;;;;;10.00;9.00;;;;;21.46;43.04;101697.11;112639;1245;20068;-84
2022/03/08 03:11:27;;;;;;;;;12.00;10.00;;;;;21.47;42.68;101698.27;113111;1244;19539;-86
2022/03/08 03:13:53;;;;;;;;;12.50;10.00;;;;;21.47;42.85;101699.20;112664;1244;20884;-86
2022/03/08 03:16:19;;;;;;;;;14.00;12.00;;;;;21.47;42.65;101702.27;113135;1245;20353;-85
2022/03/08 03:18:45;;;;;;;;;12.50;10.00;;;;;21.48;42.92;101703.84;112657;1244;21619;-85
2022/03/08 03:21:11;;;;;;;;;12.00;10.00;;;;;21.48;42.86;101702.17;112682;1245;20986;-84
2022/03/08 03:23:37;;;;;;;;;10.00;10.00;;;;;21.48;42.80;101702.35;112754;1245;19968;-85
2022/03/08 03:26:03;;;;;;;;;12.50;12.00;;;;;21.47;42.94;101700.29;112628;1245;23574;-85
2022/03/08 03:28:29;;;;;;;;;12.50;10.00;;;;;21.48;42.85;101704.05;112679;1245;19367;-86
2022/03/08 03:30:55;;;;;;;;;12.50;12.50;;;;;21.47;42.72;101705.73;112655;1244;21327;-85
2022/03/08 03:33:21;;;;;;;;;9.00;8.50;;;;;21.46;42.66;101707.09;112642;1245;22425;-85
2022/03/08 03:35:46;;;;;;;;;13.50;13.00;;;;;21.46;42.83;101703.47;112805;1245;19617;-85
2022/03/08 03:38:12;;;;;;;;;12.50;10.00;;;;;21.46;42.83;101706.20;112640;1245;20024;-85
2022/03/08 03:40:39;;;;;;;;;9.33;9.33;;;;;21.46;42.89;101707.33;112662;1244;19301;-85
2022/03/08 03:43:04;;;;;;;;;10.00;9.00;;;;;21.46;42.61;101705.11;112679;1245;23408;-87
2022/03/08 03:45:30;;;;;;;;;16.00;14.00;;;;;21.45;42.67;101700.63;112625;1245;23379;-85
2022/03/08 03:47:56;;;;;;;;;11.00;9.50;;;;;21.46;42.65;101704.77;112643;1245;23009;-85
2022/03/08 03:50:22;;;;;;;;;14.50;12.00;;;;;21.46;42.84;101716.75;112617;1245;19422;-85
2022/03/08 03:52:48;;;;;;;;;9.00;9.00;;;;;21.46;42.75;101717.66;112499;1245;20311;-86
2022/03/08 03:55:14;;;;;;;;;13.00;10.00;;;;;21.44;42.62;101720.03;112661;1245;19137;-85
2022/03/08 03:57:40;;;;;;;;;12.50;12.00;;;;;21.43;42.76;101720.30;112660;1245;19236;-86
2022/03/08 04:00:06;;;;;;;;;8.00;8.00;;;;;21.43;42.59;101713.96;112653;1244;23929;-86
2022/03/08 04:02:32;;;;;;;;;10.00;9.00;;;;;21.44;42.54;101713.39;112657;1245;19403;-86
2022/03/08 04:04:58;;;;;;;;;12.00;9.50;;;;;21.43;42.67;101712.02;112519;1245;22087;-85
2022/03/08 04:07:24;;;;;;;;;9.00;9.00;;;;;21.42;42.75;101707.77;112646;1245;21992;-86
2022/03/08 04:09:50;;;;;;;;;12.00;10.00;;;;;21.40;42.65;101707.41;112648;1244;19127;-85
2022/03/08 04:12:16;;;;;;;;;12.00;10.00;;;;;21.42;42.60;101713.17;112655;1245;23499;-85
2022/03/08 04:14:41;;;;;;;;;9.00;9.00;;;;;21.42;42.51;101709.05;112645;1245;22150;-85
2022/03/08 04:17:07;;;;;;;;;13.00;10.00;;;;;21.42;42.67;101706.48;112601;1245;19064;-85
2022/03/08 04:19:33;;;;;;;;;9.50;8.50;;;;;21.43;42.45;101711.23;112537;1245;21215;-85
2022/03/08 04:21:59;;;;;;;;;10.67;10.00;;;;;21.43;42.55;101715.45;112621;1244;22611;-86
2022/03/08 04:24:27;;;;;;;;;11.00;10.00;;;;;21.42;42.52;101715.70;112719;1245;19156;-86
2022/03/08 04:26:53;;;;;;;;;10.00;9.67;;;;;21.44;42.52;101722.80;112702;1245;19541;-86
2022/03/08 04:29:19;;;;;;;;;10.00;10.00;;;;;21.45;42.53;101727.27;112664;1245;23226;-85
2022/03/08 04:31:45;;;;;;;;;9.67;9.67;;;;;21.44;42.51;101732.95;112635;1245;19271;-85
2022/03/08 04:34:11;;;;;;;;;13.00;12.00;;;;;21.44;42.43;101730.98;112701;1244;19923;-86
2022/03/08 04:36:37;;;;;;;;;11.00;9.00;;;;;21.44;42.50;101730.77;112728;1245;20362;-87
2022/03/08 04:39:02;;;;;;;;;12.50;12.00;;;;;21.45;42.65;101734.70;113015;1244;19050;-86
2022/03/08 04:41:28;;;;;;;;;12.00;10.00;;;;;21.45;42.35;101735.79;112847;1245;19268;-87
2022/03/08 04:43:54;;;;;;;;;12.00;11.00;;;;;21.46;42.39;101736.78;112986;1245;20034;-87
2022/03/08 04:46:20;;;;;;;;;9.00;9.00;;;;;21.45;42.49;101736.16;112634;1244;18920;-86
2022/03/08 04:48:46;;;;;;;;;11.00;10.00;;;;;21.46;42.52;101732.59;112894;1244;19089;-86
2022/03/08 04:51:12;;;;;;;;;12.00;10.00;;;;;21.45;42.50;101730.00;112656;1245;20343;-85
2022/03/08 04:53:39;;;;;;;;;10.00;10.00;;;;;21.44;42.56;101726.27;112453;1244;21237;-86
2022/03/08 04:56:05;;;;;;;;;10.00;8.33;;;;;21.44;42.37;101726.61;112672;1245;19634;-85
2022/03/08 04:58:31;;;;;;;;;11.00;9.00;;;;;21.43;42.48;101724.12;112672;1244;19922;-85
2022/03/08 05:00:57;;;;;;;;;14.00;12.67;;;;;21.43;42.37;101722.52;112720;1245;21786;-85
2022/03/08 05:03:23;;;;;;;;;10.00;9.00;;;;;21.42;42.38;101723.70;112655;1245;19276;-85
2022/03/08 05:05:49;;;;;;;;;10.00;9.00;;;;;21.43;42.56;101730.18;112655;1245;20937;-85
2022/03/08 05:08:15;;;;;;;;;13.00;10.00;;;;;21.43;42.61;101733.48;112683;1245;19285;-85
2022/03/08 05:10:41;;;;;;;;;10.00;10.00;;;;;21.42;42.46;101732.47;112693;1244;19499;-88
2022/03/08 05:13:07;;;;;;;;;9.00;8.00;;;;;21.42;42.41;101731.75;112675;1244;21131;-87
2022/03/08 05:15:33;;;;;;;;;10.00;10.00;;;;;21.42;42.33;101732.64;112686;1245;19098;-85
2022/03/08 05:17:59;;;;;;;;;9.50;8.50;;;;;21.42;42.26;101731.21;112651;1245;23026;-86
2022/03/08 05:20:29;;;;;;;;;9.33;9.00;;;;;21.41;42.33;101722.93;112653;1245;20157;-85
2022/03/08 05:22:56;;;;;;;;;14.00;13.00;;;;;21.41;42.25;101724.93;112660;1245;22456;-85
2022/03/08 05:25:22;;;;;;;;;11.67;11.67;;;;;21.40;42.19;101734.45;112709;1245;19960;-85
2022/03/08 05:27:48;;;;;;;;;10.00;10.00;;;;;21.42;42.29;101739.97;112721;1245;19962;-85
2022/03/08 05:30:14;;;;;;;;;10.00;9.00;;;;;21.41;42.20;101743.81;112730;1245;19169;-87
2022/03/08 05:32:40;;;;;;;;;12.00;12.00;;;;;21.42;42.24;101754.83;112721;1244;19179;-86
2022/03/08 05:35:06;;;;;;;;;16.00;13.00;;;;;21.42;42.11;101754.64;112662;1244;21272;-85
2022/03/08 05:37:33;;;;;;;;;9.00;9.00;;;;;21.42;42.24;101754.80;112656;1245;23767;-86
2022/03/08 05:39:59;;;;;;;;;9.00;9.00;;;;;21.43;42.23;101757.98;112710;1245;19456;-86
2022/03/08 05:42:25;;;;;;;;;10.00;9.50;;;;;21.43;42.25;101764.18;112643;1244;20088;-86
2022/03/08 05:44:51;;;;;;;;;12.00;9.50;;;;;21.42;42.22;101764.47;112628;1245;22995;-85
2022/03/08 05:47:17;;;;;;;;;10.00;10.00;;;;;21.43;42.26;101763.46;112654;1245;24186;-84
2022/03/08 05:49:43;;;;;;;;;9.33;9.33;;;;;21.43;42.21;101764.52;112608;1245;22897;-86
2022/03/08 05:52:09;;;;;;;;;10.00;10.00;;;;;21.45;41.99;101760.34;112637;1245;23869;-90
2022/03/08 05:54:35;;;;;;;;;11.00;9.50;;;;;21.55;41.93;101757.77;112602;1245;21292;-86
2022/03/08 05:57:01;;;;;;;;;9.67;9.00;;;;;21.63;41.88;101756.30;112731;1245;23425;-87
2022/03/08 05:59:27;;;;;;;;;12.00;11.33;;;;;21.67;42.29;101759.54;112714;1244;22828;-87
2022/03/08 06:01:53;;;;;;;;;12.00;11.00;;;;;21.67;42.29;101765.34;112651;1245;19834;-85
2022/03/08 06:04:19;;;;;;;;;9.00;9.00;;;;;21.65;42.82;101766.68;112700;1245;20869;-87
2022/03/08 06:06:45;;;;;;;;;12.50;10.00;;;;;21.63;43.15;101772.09;113307;1245;19975;-85
2022/03/08 06:09:11;;;;;;;;;10.00;9.00;;;;;21.68;43.06;101768.32;112761;1245;19409;-88
2022/03/08 06:11:37;;;;;;;;;12.00;10.00;;;;;21.76;43.32;101770.42;112641;1245;20119;-87
2022/03/08 06:14:03;;;;;;;;;13.00;12.00;;;;;21.82;43.19;101766.14;112801;1245;19693;-86
2022/03/08 06:16:29;;;;;;;;;9.00;9.00;;;;;21.86;43.36;101765.52;112701;1245;19453;-84
2022/03/08 06:18:56;;;;;;;;;12.00;11.00;;;;;21.92;43.66;101773.85;112730;1245;21585;-86
2022/03/08 06:21:22;;;;;;;;;10.00;9.00;;;;;21.96;43.55;101782.21;112703;1245;23686;-86
2022/03/08 06:23:48;;;;;;;;;11.00;10.00;;;;;21.99;43.48;101783.65;112663;1244;19246;-85
2022/03/08 06:26:14;;;;;;;;;11.00;10.00;;;;;22.02;43.77;101775.20;112650;1245;19912;-86
2022/03/08 06:28:40;;;;;;;;;11.50;10.00;;;;;22.06;43.65;101775.31;112623;1245;19416;-87
2022/03/08 06:31:06;;;;;;;;;14.67;13.00;;;;;22.07;43.89;101772.46;112615;1245;20077;-86
2022/03/08 06:33:32;;;;;;;;;17.00;13.00;;;;;22.08;43.69;101783.11;112602;1244;20460;-85
2022/03/08 06:35:57;;;;;;;;;14.00;11.00;;;;;22.07;43.48;101788.27;112605;1245;19196;-87
2022/03/08 06:38:23;;;;;;;;;13.00;13.00;;;;;22.08;43.38;101799.42;112592;1245;19274;-89
2022/03/08 06:40:49;;;;;;;;;15.00;13.00;;;;;22.11;43.54;101803.02;112663;1244;20021;-85
2022/03/08 06:43:15;;;;;;;;;13.00;10.00;;;;;22.19;43.71;101796.97;112662;1244;19671;-87
2022/03/08 06:45:41;;;;;;;;;11.00;11.00;;;;;22.25;43.87;101802.88;112704;1245;19270;-83
2022/03/08 06:48:08;;;;;;;;;11.00;9.00;;;;;22.29;43.97;101807.16;112592;1245;22448;-85
2022/03/08 06:50:34;;;;;;;;;12.00;10.00;;;;;22.32;43.73;101811.33;112619;1244;19775;-86
2022/03/08 06:53:00;;;;;;;;;13.00;11.00;;;;;22.34;43.68;101816.11;112637;1244;19207;-84
2022/03/08 06:55:26;;;;;;;;;11.33;10.00;;;;;22.35;43.43;101810.88;112629;1245;20295;-85
2022/03/08 06:57:52;;;;;;;;;10.50;9.50;;;;;22.36;43.40;101808.23;112593;1245;20089;-84
2022/03/08 07:00:18;;;;;;;;;10.00;9.00;;;;;22.35;43.37;101804.34;112626;1245;19378;-86
2022/03/08 07:02:44;;;;;;;;;11.50;11.50;;;;;22.36;43.41;101800.22;112639;1245;23289;-84
2022/03/08 07:05:10;;;;;;;;;14.00;11.00;;;;;22.38;43.21;101795.83;112647;1244;19293;-86
2022/03/08 07:07:37;;;;;;;;;12.00;9.00;;;;;22.39;43.19;101795.66;112596;1244;19368;-85
2022/03/08 07:10:03;;;;;;;;;10.67;10.33;;;;;22.42;42.75;101797.90;112561;1245;22662;-85
2022/03/08 07:12:29;;;;;;;;;13.00;11.00;;;;;22.47;43.06;101801.98;112579;1244;24240;-87
2022/03/08 07:14:55;;;;;;;;;13.00;12.50;;;;;22.46;42.72;101805.93;112678;1245;19864;-86
2022/03/08 07:17:23;;;;;;;;;12.00;10.50;;;;;22.46;42.64;101802.61;112700;1245;19972;-85
2022/03/08 07:19:52;;;;;;;;;12.33;10.67;;;;;22.46;42.36;101798.59;112507;1245;20024;-85
2022/03/08 07:22:18;;;;;;;;;11.50;10.50;;;;;22.47;42.51;101796.63;112703;1245;19348;-85
2022/03/08 07:24:44;;;;;;;;;14.00;14.00;;;;;22.48;42.28;101793.23;112666;1245;21718;-86
2022/03/08 07:27:10;;;;;;;;;11.33;11.33;;;;;22.48;42.42;101784.85;112806;1245;19233;-85
2022/03/08 07:29:36;;;;;;;;;16.00;14.50;;;;;22.55;42.40;101782.35;112785;1245;22986;-87
2022/03/08 07:32:02;;;;;;;;;14.67;11.00;;;;;22.57;42.22;101778.44;112499;1245;21920;-85
2022/03/08 07:34:28;;;;;;;;;18.00;15.00;;;;;22.60;42.42;101785.39;112755;1245;20862;-86
2022/03/08 07:36:54;;;;;;;;;15.00;14.50;;;;;22.61;42.15;101795.13;112450;1245;19489;-86
2022/03/08 07:39:21;;;;;;;;;17.33;15.00;;;;;22.52;41.70;101796.15;112545;1245;20156;-87
2022/03/08 07:41:53;;;;;;;;;17.00;17.00;;;;;22.44;41.12;101795.30;112577;1245;19146;-86
2022/03/08 07:44:25;;;;;;;;;19.00;18.00;;;;;22.35;40.00;101792.87;112447;1246;19623;-85
2022/03/08 07:47:00;;;;;;;;;22.00;19.00;;;;;22.26;38.97;101796.56;112455;1246;21653;-85
2022/03/08 07:49:26;;;;;;;;;19.33;17.67;;;;;22.13;38.48;101789.31;112434;1246;23598;-84
2022/03/08 07:51:52;;;;;;;;;17.00;17.00;;;;;22.09;39.18;101779.02;112429;1246;19443;-86
2022/03/08 07:54:18;;;;;;;;;15.00;14.00;;;;;22.11;39.11;101779.27;112442;1245;20041;-86
2022/03/08 07:56:44;;;;;;;;;13.67;13.67;;;;;22.13;39.89;101774.74;112699;1245;21610;-87
2022/03/08 07:59:11;;;;;;;;;14.00;13.00;;;;;22.20;40.34;101778.27;113142;1246;19497;-85
2022/03/08 08:01:37;;;;;;;;;16.00;14.33;;;;;22.21;40.87;101776.65;112461;1245;21387;-86
2022/03/08 08:04:02;;;;;;;;;17.50;15.50;;;;;22.26;41.05;101780.19;112461;1245;19048;-87
2022/03/08 08:06:28;;;;;;;;;16.50;14.50;;;;;22.31;41.17;101783.59;112504;1245;19295;-86
2022/03/08 08:08:54;;;;;;;;;12.00;12.00;;;;;22.41;41.30;101787.29;112561;1245;23759;-89
2022/03/08 08:11:20;;;;;;;;;15.00;15.00;;;;;22.53;41.41;101787.61;112704;1244;22623;-86
2022/03/08 08:13:48;;;;;;;;;16.33;14.33;;;;;22.58;41.32;101792.40;112627;1244;19527;-85
2022/03/08 08:16:14;;;;;;;;;18.67;16.33;;;;;22.64;41.45;101790.96;112584;1245;20161;-86
2022/03/08 08:18:40;;;;;;;;;21.00;19.00;;;;;22.63;41.15;101796.05;112696;1245;21859;-87
2022/03/08 08:21:06;;;;;;;;;21.00;19.00;;;;;22.59;41.10;101795.97;112641;1244;19278;-86
2022/03/08 08:23:32;;;;;;;;;20.67;19.00;;;;;22.52;41.03;101794.08;112648;1244;22679;-88
2022/03/08 08:25:58;;;;;;;;;17.00;15.00;;;;;22.50;41.64;101794.73;112470;1245;22503;-85
2022/03/08 08:28:24;;;;;;;;;17.50;17.00;;;;;22.48;41.93;101796.19;112601;1244;23700;-85
2022/03/08 08:30:49;;;;;;;;;18.00;16.00;;;;;22.48;42.04;101786.38;112487;1245;22113;-83
2022/03/08 08:33:15;;;;;;;;;15.00;14.00;;;;;22.46;41.91;101787.48;112401;1246;23086;-87
2022/03/08 08:35:41;;;;;;;;;18.00;16.00;;;;;22.43;41.96;101787.05;112631;1245;24556;-85
2022/03/08 08:38:07;;;;;;;;;14.50;14.00;;;;;22.43;42.15;101789.40;112599;1244;22016;-84
2022/03/08 08:40:34;;;;;;;;;21.50;14.00;;;;;22.43;42.19;101785.85;112611;1244;19062;-83
2022/03/08 08:43:00;;;;;;;;;17.67;14.33;;;;;22.41;42.21;101785.45;112511;1245;23530;-85
2022/03/08 08:45:26;;;;;;;;;14.00;13.00;;;;;22.38;42.51;101784.86;112841;1245;20012;-84
2022/03/08 08:47:52;;;;;;;;;18.50;15.00;;;;;22.35;42.72;101786.79;112426;1245;19639;-84
2022/03/08 08:50:18;;;;;;;;;21.00;16.00;;;;;22.36;42.91;101789.64;112339;1246;19596;-83
2022/03/08 08:52:44;;;;;;;;;19.00;17.00;;;;;22.37;43.44;101792.23;112256;1246;20095;-83
2022/03/08 08:55:10;;;;;;;;;17.00;15.50;;;;;22.38;43.64;101793.94;112441;1245;19072;-83
2022/03/08 08:57:36;;;;;;;;;14.50;14.50;;;;;22.39;44.15;101784.63;112561;1244;19347;-84
2022/03/08 09:00:02;;;;;;;;;19.00;15.00;;;;;22.39;44.20;101778.14;112541;1245;20020;-83
2022/03/08 09:02:28;;;;;;;;;13.00;12.67;;;;;22.41;43.94;101772.91;112402;1245;19257;-84
2022/03/08 09:04:54;;;;;;;;;17.00;14.00;;;;;22.44;44.51;101775.20;112613;1244;19268;-85
2022/03/08 09:07:20;;;;;;;;;17.00;15.00;;;;;22.44;44.71;101775.20;112468;1245;23612;-85
2022/03/08 09:09:49;;;;;;;;;15.00;15.00;;;;;22.46;44.54;101774.78;112671;1244;19175;-82
2022/03/08 09:12:15;;;;;;;;;18.00;15.33;;;;;22.39;44.01;101779.95;112612;1243;20073;-85
2022/03/08 09:14:40;;;;;;;;;21.50;15.00;;;;;22.29;43.04;101782.93;112656;1245;19903;-84
2022/03/08 09:17:06;;;;;;;;;19.00;14.00;;;;;22.18;42.07;101783.14;112617;1245;25188;-83
2022/03/08 09:19:32;;;;;;;;;17.00;14.00;;;;;22.11;41.51;101787.46;112673;1245;19595;-83
2022/03/08 09:21:58;;;;;;;;;18.00;17.50;;;;;22.11;40.93;101785.27;112496;1245;21033;-83
2022/03/08 09:24:24;;;;;;;;;18.00;15.00;;;;;22.08;40.59;101786.94;112647;1245;19125;-83
2022/03/08 09:26:50;;;;;;;;;20.00;17.00;;;;;21.99;40.24;101782.71;112613;1245;22968;-84
2022/03/08 09:29:17;;;;;;;;;16.00;15.00;;;;;21.99;39.77;101778.53;112592;1245;20061;-82
2022/03/08 09:31:43;;;;;;;;;18.00;15.67;;;;;22.00;39.75;101772.04;112649;1245;19338;-83
2022/03/08 09:34:09;;;;;;;;;17.00;13.00;;;;;22.01;39.75;101769.21;112532;1244;19689;-83
2022/03/08 09:36:36;;;;;;;;;22.50;15.00;;;;;22.05;39.55;101766.44;112660;1244;22845;-84
2022/03/08 09:39:02;;;;;;;;;13.00;13.00;;;;;22.02;39.03;101759.00;112635;1244;19106;-84
2022/03/08 09:41:28;;;;;;;;;15.00;14.00;;;;;21.96;38.62;101752.29;112640;1245;19551;-83
2022/03/08 09:43:54;;;;;;;;;15.67;13.67;;;;;21.93;38.39;101745.91;112854;1245;20323;-84
2022/03/08 09:46:20;;;;;;;;;13.00;11.00;;;;;21.89;38.40;101740.09;112679;1245;23818;-84
2022/03/08 09:48:46;;;;;;;;;17.00;16.00;;;;;21.87;38.12;101738.65;112817;1244;20467;-82
2022/03/08 09:51:12;;;;;;;;;14.00;13.00;;;;;21.88;38.18;101735.48;112588;1245;20109;-82
2022/03/08 09:53:38;;;;;;;;;14.00;13.00;;;;;21.99;38.78;101733.60;112603;1245;19031;-85
2022/03/08 09:56:04;;;;;;;;;13.00;11.50;;;;;22.05;37.96;101732.04;112657;1245;21375;-86
2022/03/08 09:58:29;;;;;;;;;15.00;13.50;;;;;22.07;38.64;101731.33;112623;1245;20008;-85
2022/03/08 10:00:59;;;;;;;;;11.50;11.50;;;;;22.06;38.07;101732.80;112613;1245;20071;-85
2022/03/08 10:03:27;;;;;;;;;16.00;14.00;;;;;22.05;37.46;101734.23;112632;1245;22184;-81
2022/03/08 10:05:53;;;;;;;;;13.00;11.00;;;;;22.06;36.56;101733.98;112651;1244;20582;-82
2022/03/08 10:08:19;;;;;;;;;14.00;13.50;;;;;22.03;35.97;101731.30;112655;1245;22163;-81
2022/03/08 10:10:45;;;;;;;;;15.00;15.00;;;;;21.99;35.76;101729.64;112565;1245;19620;-81
2022/03/08 10:13:11;;;;;;;;;13.00;11.00;;;;;21.97;35.72;101730.89;112644;1244;20615;-81
2022/03/08 10:15:37;;;;;;;;;10.00;10.00;;;;;21.94;34.65;101725.80;112574;1245;19259;-82
2022/03/08 10:18:03;;;;;;;;;13.00;10.50;;;;;21.91;34.86;101723.80;112639;1245;22750;-82
2022/03/08 10:20:29;;;;;;;;;11.50;10.50;;;;;21.88;34.07;101716.39;112585;1244;20014;-82
2022/03/08 10:22:55;;;;;;;;;12.00;10.00;;;;;21.85;34.04;101720.27;112570;1245;19124;-83
2022/03/08 10:25:22;;;;;;;;;11.33;11.00;;;;;21.83;33.87;101715.08;112622;1245;21717;-81
2022/03/08 10:27:48;;;;;;;;;10.00;9.67;;;;;21.77;33.10;101710.29;112600;1245;20051;-82
2022/03/08 10:30:14;;;;;;;;;13.00;10.50;;;;;21.70;33.29;101708.13;112556;1245;19349;-83
2022/03/08 10:32:59;;;;;;;;;14.00;12.00;;;;;21.66;33.01;101705.24;112586;1245;19986;-80
2022/03/08 10:35:25;;;;;;;;;13.00;11.00;;;;;21.69;33.41;101698.98;112592;1245;22205;-84
2022/03/08 10:37:51;;;;;;;;;12.67;11.33;;;;;21.71;32.96;101702.00;112588;1245;22157;-84
2022/03/08 10:40:17;;;;;;;;;14.00;11.00;;;;;21.70;32.48;101702.23;112584;1244;22819;-85
2022/03/08 10:42:43;;;;;;;;;14.00;14.00;;;;;21.71;31.76;101704.77;112694;1244;19930;-85
2022/03/08 10:45:09;;;;;;;;;18.00;14.50;;;;;21.70;31.60;101698.16;112682;1245;19121;-84
2022/03/08 10:47:38;;;;;;;;;13.00;13.00;;;;;21.67;31.80;101696.75;112628;1244;19573;-85
2022/03/08 10:50:04;;;;;;;;;20.33;16.33;;;;;21.65;31.69;101693.02;112617;1245;20253;-83
2022/03/08 10:52:30;;;;;;;;;18.67;14.67;;;;;21.64;31.69;101688.23;112624;1245;19197;-86
2022/03/08 10:54:56;;;;;;;;;22.00;18.00;;;;;21.59;32.00;101682.36;112606;1245;19479;-90
2022/03/08 10:57:22;;;;;;;;;21.50;16.00;;;;;21.37;31.39;101682.56;112729;1245;21847;-85
2022/03/08 10:59:48;;;;;;;;;20.00;17.50;;;;;21.10;32.07;101677.14;112714;1243;22065;-88